KRIL

Rifle Garfield County Airport

Rifle, Colorado, USA
METAR KRIL 162153Z AUTO 26014KT 10SM SCT013 SCT046 BKN110 03/01 A3012 RMK AO2 SLP208 T00330011
Observed Flight Rules
Jan-16 @ 21:53 UTC (49 minutes ago) Visual Flight Rules
Wind Visibility Clouds
260° at 14 knots 10 miles
  • Scattered at 1,300' AGL
  • Scattered at 4,600' AGL
  • Broken at 11,000' AGL
Temperatures Readings
Current 3°C / 37°F
Dewpoint 1°C / 34°F
Humidity 87%
Altimeter 30.12" Hg
Pressure 1020.8 hPa
Elevation 1678
METAR KRIL 162153Z AUTO 26014KT 10SM SCT013 SCT046 BKN110 03/01 A3012 RMK AO2 SLP208 T00330011
Observed Flight Rules
Jan-16 @ 21:53 UTC
(49 minutes ago)
VFR
Wind Visibility
260° at 14 knots 10 miles
Clouds
  • Scattered at 1,300' AGL
  • Scattered at 4,600' AGL
  • Broken at 11,000' AGL
Temperature Dewpoint
3°C / 37°F 1°C / 34°F
Humidity Altimeter Pressure
87% 30.12" Hg 1020.8 hPa